Flight Track Log - Related Links

Times and Time Zones

All times are in EDT time to prevent confusion due to time zone crossing. See the FRG1560 flight status page for this flight to view local times or setup timezone preferences in your user account.

Time Position Orientation Groundspeed Altitude Reporting Facility
EDT Latitude Longitude Course Direction KTS MPH feet Rate Location/Type
Mon 10:02:52 PM 43.0847 -89.3433 187° South 123 142 4,000  Level Chicago Center
Mon 10:03:53 PM 43.0494 -89.3444 181° South 125 144 5,500 1,366 Climbing Chicago Center
Mon 10:04:55 PM 43.0114 -89.3506 187° South 131 151 6,800 1,415 Climbing Chicago Center
Mon 10:05:56 PM 42.9594 -89.3583 186° South 146 168 8,400 1,610 Climbing Chicago Center
Mon 10:06:58 PM 42.9142 -89.3642 185° South 160 184 10,100 1,561 Climbing Chicago Center
Mon 10:07:59 PM 42.8686 -89.3722 187° South 165 190 11,600 984 Climbing Chicago Center
Mon 10:08:00 PM 42.7857 -89.3829 187° South  Level FlightAware Approximate
Mon 10:09:00 PM 42.8147 -89.3808 187° South 189 217 12,100  Level Chicago Center
Mon 10:10:02 PM 42.7511 -89.3908 187° South 224 258 12,100  Level Chicago Center
Mon 10:11:03 PM 42.6867 -89.4000 186° South 233 268 12,100  Level Chicago Center
Mon 10:12:05 PM 42.6219 -89.4092 186° South 235 270 12,100  Level Chicago Center
Mon 10:13:06 PM 42.5569 -89.4192 186° South 236 272 12,100  Level Chicago Center
Mon 10:14:08 PM 42.4786 -89.4292 185° South 237 273 12,100  Level Chicago Center
Mon 10:15:09 PM 42.4144 -89.4406 187° South 234 269 12,100  Level Chicago Center
Mon 10:16:11 PM 42.3481 -89.4497 186° South 238 274 12,100  Level Chicago Center
Mon 10:17:12 PM 42.2831 -89.4603 187° South 237 273 12,100  Level Chicago Center
Mon 10:18:14 PM 42.2169 -89.4694 186° South 238 274 12,100  Level Chicago Center
Mon 10:19:15 PM 42.1517 -89.4800 187° South 237 273 12,100  Level Chicago Center
Mon 10:20:16 PM 42.0867 -89.4894 186° South 236 272 12,100  Level Chicago Center
Mon 10:21:18 PM 42.0106 -89.5014 187° South 241 277 12,100  Level Chicago Center
Mon 10:22:19 PM 41.9447 -89.5119 187° South 238 274 12,100  Level Chicago Center
Mon 10:23:21 PM 41.8783 -89.5208 186° South 240 276 12,100  Level Chicago Center
Mon 10:24:22 PM 41.8128 -89.5297 186° South 238 274 12,100  Level Chicago Center
Mon 10:25:24 PM 41.7464 -89.5397 186° South 240 276 12,100 -49 Level Chicago Center
Mon 10:26:25 PM 41.6756 -89.5511 187° South 239 275 12,000 -49 Descending Chicago Center
Mon 10:27:26 PM 41.6086 -89.5597 185° South 240 276 12,000  Level Chicago Center
Mon 10:28:28 PM 41.5419 -89.5692 186° South 240 276 12,000  Level Chicago Center
Mon 10:29:30 PM 41.4750 -89.5800 187° South 241 277 12,000  Level Chicago Center
Mon 10:30:31 PM 41.4081 -89.5892 186° South 241 277 12,000 -98 Level Chicago Center
Mon 10:31:32 PM 41.3411 -89.5992 186° South 241 277 11,800 -492 Descending Chicago Center
Mon 10:32:33 PM 41.2592 -89.6103 186° South 246 283 11,000 -732 Descending Chicago Center
Mon 10:33:35 PM 41.1925 -89.6208 187° South 241 277 10,300 -1,024 Descending Chicago Center
Mon 10:34:36 PM 41.1231 -89.6228 181° South 246 283 8,900 -1,180 Descending Chicago Center
Mon 10:35:37 PM 41.0542 -89.6283 183° South 250 288 7,900 -927 Descending Chicago Center
Mon 10:36:39 PM 40.9869 -89.6269 179° South 245 282 7,000 -878 Descending Chicago Center
Mon 10:37:40 PM 40.9203 -89.6244 178° South 239 275 6,100 -1,180 Descending Chicago Center
Mon 10:38:41 PM 40.8575 -89.6306 184° South 229 264 4,600 -1,366 Descending Chicago Center
Mon 10:39:43 PM 40.7975 -89.6319 181° South 219 252 3,300 -1,122 Descending Chicago Center
Mon 10:40:44 PM 40.7428 -89.6336 181° South 207 238 2,300 -836 Descending Chicago Center
Mon 10:41:45 PM 40.7000 -89.6469 193° South 177 204 1,600 -683 Descending Chicago Center
Mon 10:42:47 PM 40.6672 -89.6803 218° Southwest 155 178 900 -677 Descending Chicago Center
Mon 10:44:00 PM 40.6500 -89.6833 180° South  Level FlightAware Approximate
Mon 10:51:00 PM 40.6642 -89.6933 180° South  Level Estimated

Login

Don't have an account? Register now (free) for customized features, flight alerts, and more!